Time;durP1;ratioP1;P1;durP2;ratioP2;P2;SDS_P1;SDS_P2;PMS_P1;PMS_P2;Temp;Humidity;BMP_temperature;BMP_pressure;BME280_temperature;BME280_humidity;BME280_pressure;Samples;Min_cycle;Max_cycle;Signal;HPM_P1;HPM_P2
2022/07/01 00:02:04;;;;;;;9.87;8.30;;;;;;;21.30;100.00;96036.50;5034456;28;20429;-76
2022/07/01 00:04:31;;;;;;;9.90;7.10;;;;;;;21.33;100.00;96038.38;5020300;28;20441;-75
2022/07/01 00:07:16;;;;;;;9.10;6.73;;;;;;;21.35;100.00;96046.03;5039605;28;20930;-75
2022/07/01 00:09:43;;;;;;;8.33;7.73;;;;;;;20.98;100.00;95998.47;5036466;28;20441;-75
2022/07/01 00:12:10;;;;;;;8.97;7.80;;;;;;;20.93;100.00;96005.78;5062825;28;20434;-75
2022/07/01 00:14:37;;;;;;;8.37;7.47;;;;;;;20.89;100.00;96042.69;5033120;28;20433;-75
2022/07/01 00:17:04;;;;;;;8.70;7.90;;;;;;;20.39;100.00;95975.22;5036218;28;20531;-75
2022/07/01 00:19:30;;;;;;;8.40;7.60;;;;;;;20.81;100.00;96035.84;5036426;28;20511;-75
2022/07/01 00:21:57;;;;;;;8.10;7.40;;;;;;;20.51;100.00;96001.63;5036232;28;21162;-75
2022/07/01 00:24:24;;;;;;;8.80;8.00;;;;;;;20.69;100.00;96038.28;5036338;28;20429;-75
2022/07/01 00:26:52;;;;;;;13.07;7.77;;;;;;;20.76;100.00;96038.22;5053904;28;20461;-75
2022/07/01 00:29:19;;;;;;;7.93;6.57;;;;;;;20.55;100.00;96023.81;5049310;28;20989;-75
2022/07/01 00:31:46;;;;;;;7.80;7.00;;;;;;;20.45;100.00;96013.97;5035112;28;20932;-75
2022/07/01 00:34:12;;;;;;;7.93;6.87;;;;;;;20.27;100.00;96010.63;5054061;28;20425;-75
2022/07/01 00:36:39;;;;;;;9.23;7.10;;;;;;;20.63;100.00;96052.16;5036139;28;20473;-75
2022/07/01 00:39:06;;;;;;;8.33;6.43;;;;;;;20.49;100.00;96054.97;5053910;28;20440;-75
2022/07/01 00:41:33;;;;;;;7.37;6.70;;;;;;;20.64;100.00;96063.66;5035754;28;20437;-75
2022/07/01 00:43:59;;;;;;;7.43;6.83;;;;;;;20.32;100.00;96050.50;5036199;28;20475;-75
2022/07/01 00:46:26;;;;;;;8.63;6.63;;;;;;;20.37;100.00;96040.06;5052802;28;20807;-75
2022/07/01 00:48:56;;;;;;;11.33;6.87;;;;;;;20.36;100.00;96065.41;5042646;28;20443;-75
2022/07/01 00:51:23;;;;;;;7.13;6.40;;;;;;;20.36;100.00;96064.66;5035843;28;20430;-75
2022/07/01 00:53:50;;;;;;;6.60;6.17;;;;;;;20.38;100.00;96054.28;5035768;28;20430;-75
2022/07/01 00:56:19;;;;;;;6.37;5.40;;;;;;;20.50;100.00;96043.06;5035524;28;20472;-75
2022/07/01 00:58:46;;;;;;;7.50;6.40;;;;;;;20.10;100.00;96030.34;5019276;28;20943;-75
2022/07/01 01:01:13;;;;;;;6.10;5.60;;;;;;;19.97;100.00;96030.81;5032397;28;20505;-75
2022/07/01 01:03:39;;;;;;;9.87;6.07;;;;;;;20.13;100.00;96041.03;5030358;28;20437;-75
2022/07/01 01:06:06;;;;;;;17.43;7.50;;;;;;;20.14;100.00;96050.63;5035366;28;20461;-75
2022/07/01 01:08:33;;;;;;;6.90;6.07;;;;;;;20.08;100.00;96077.13;5035869;28;20937;-75
2022/07/01 01:11:00;;;;;;;7.10;6.50;;;;;;;19.88;100.00;96078.78;5026401;28;20499;-75
2022/07/01 01:13:27;;;;;;;6.77;6.20;;;;;;;19.68;100.00;96048.25;5039738;28;20952;-75
2022/07/01 01:15:53;;;;;;;5.97;5.37;;;;;;;19.78;100.00;96080.38;5053206;28;20445;-75
2022/07/01 01:18:20;;;;;;;7.50;6.80;;;;;;;19.70;100.00;96070.06;5053109;28;20479;-75
2022/07/01 01:20:47;;;;;;;8.40;7.60;;;;;;;19.41;100.00;96039.91;5020825;28;20434;-75
2022/07/01 01:23:13;;;;;;;7.37;6.40;;;;;;;19.64;100.00;96042.91;5033795;28;20462;-75
2022/07/01 01:25:40;;;;;;;8.60;6.13;;;;;;;19.78;100.00;96060.84;5040429;28;20437;-75
2022/07/01 01:28:07;;;;;;;6.80;6.27;;;;;;;19.61;100.00;96042.91;5037167;28;20479;-75
2022/07/01 01:30:35;;;;;;;6.97;6.30;;;;;;;19.80;100.00;96061.22;5037088;28;20519;-75
2022/07/01 01:33:02;;;;;;;6.97;6.30;;;;;;;19.84;100.00;96067.31;5051559;28;20433;-75
2022/07/01 01:35:29;;;;;;;6.33;5.70;;;;;;;19.94;100.00;96085.28;5034812;28;20437;-75
2022/07/01 01:37:56;;;;;;;9.73;6.83;;;;;;;20.14;100.00;96069.41;5034744;28;20469;-75
2022/07/01 01:40:23;;;;;;;5.87;5.30;;;;;;;20.26;100.00;96063.56;5034826;28;20491;-75
2022/07/01 01:42:49;;;;;;;6.50;5.17;;;;;;;20.15;100.00;96067.50;5034843;28;20479;-75
2022/07/01 01:45:16;;;;;;;6.40;5.77;;;;;;;20.04;100.00;96071.03;5034841;28;20441;-75
2022/07/01 01:47:43;;;;;;;5.97;5.47;;;;;;;20.25;100.00;96102.31;5031481;28;20515;-75
2022/07/01 01:50:12;;;;;;;6.60;4.93;;;;;;;20.32;100.00;96128.38;5018196;28;20472;-75
2022/07/01 01:52:42;;;;;;;5.50;4.90;;;;;;;20.07;100.00;96093.63;5035132;28;20528;-75
2022/07/01 01:55:10;;;;;;;5.20;4.80;;;;;;;19.94;100.00;96084.50;5035223;28;20487;-75
2022/07/01 01:57:37;;;;;;;8.43;5.10;;;;;;;19.97;100.00;96081.03;5031446;28;20470;-75
2022/07/01 02:00:06;;;;;;;10.53;4.83;;;;;;;19.75;100.00;96067.72;5059468;28;20436;-75
2022/07/01 02:02:37;;;;;;;5.20;4.73;;;;;;;20.02;100.00;96081.38;5066625;28;20425;-75
2022/07/01 02:05:05;;;;;;;5.03;4.63;;;;;;;20.24;100.00;96089.28;5035407;28;20943;-75
2022/07/01 02:07:32;;;;;;;6.07;5.20;;;;;;;19.68;100.00;96064.34;5035091;28;20454;-75
2022/07/01 02:09:59;;;;;;;5.73;5.20;;;;;;;19.59;100.00;96059.38;5035344;28;20487;-75
2022/07/01 02:12:25;;;;;;;8.20;4.90;;;;;;;19.88;100.00;96092.19;5051718;28;20438;-75
2022/07/01 02:14:52;;;;;;;5.60;5.10;;;;;;;19.90;100.00;96089.13;5068068;28;20434;-75
2022/07/01 02:17:19;;;;;;;5.00;4.20;;;;;;;19.83;100.00;96106.03;5047608;28;20560;-75
2022/07/01 02:19:46;;;;;;;4.70;3.97;;;;;;;19.86;100.00;96123.25;5034678;28;20815;-75
2022/07/01 02:22:12;;;;;;;10.50;5.00;;;;;;;19.67;100.00;96098.44;5034489;28;20496;-75
2022/07/01 02:24:39;;;;;;;7.47;4.30;;;;;;;19.53;100.00;96097.72;5034678;28;20452;-75
2022/07/01 02:27:06;;;;;;;4.67;4.20;;;;;;;19.54;100.00;96118.03;5034571;28;21007;-75
2022/07/01 02:29:33;;;;;;;7.23;4.33;;;;;;;19.50;100.00;96120.72;5034253;28;20473;-75
2022/07/01 02:32:00;;;;;;;6.37;5.00;;;;;;;19.35;100.00;96101.22;5034207;28;21007;-75
2022/07/01 02:34:26;;;;;;;6.53;4.30;;;;;;;19.20;100.00;96078.28;5052660;28;20479;-75
2022/07/01 02:36:56;;;;;;;4.80;4.23;;;;;;;19.23;100.00;96077.53;5030678;28;20532;-75
2022/07/01 02:39:22;;;;;;;4.43;4.13;;;;;;;19.28;100.00;96101.25;5029744;28;20433;-75
2022/07/01 02:44:34;;;;;;;5.63;4.80;;;;;;;19.27;100.00;96110.44;5051723;28;20525;-75
2022/07/01 02:47:02;;;;;;;7.70;4.07;;;;;;;19.27;100.00;96134.59;5021452;28;20497;-75
2022/07/01 02:49:29;;;;;;;9.90;5.87;;;;;;;19.26;100.00;96133.06;5049750;28;20499;-75
2022/07/01 02:51:55;;;;;;;4.30;4.00;;;;;;;18.71;100.00;96061.19;5038837;28;20464;-75
2022/07/01 02:54:22;;;;;;;5.43;4.37;;;;;;;18.78;100.00;96133.50;5043355;28;20920;-75
2022/07/01 02:56:49;;;;;;;4.83;4.47;;;;;;;18.71;100.00;96101.38;5043338;28;20495;-75
2022/07/01 02:59:15;;;;;;;6.77;6.20;;;;;;;18.63;100.00;96105.16;5042559;28;20548;-75
2022/07/01 03:01:42;;;;;;;7.30;4.57;;;;;;;18.53;100.00;96100.56;5039482;28;20477;-75
2022/07/01 03:04:09;;;;;;;11.23;4.77;;;;;;;18.94;100.00;96146.50;5034548;28;20484;-75
2022/07/01 03:06:36;;;;;;;6.13;4.80;;;;;;;18.37;100.00;96082.22;5034186;28;20556;-75
2022/07/01 03:09:03;;;;;;;6.53;4.47;;;;;;;18.58;100.00;96130.44;5031422;28;20521;-75
2022/07/01 03:11:29;;;;;;;6.93;4.70;;;;;;;18.61;100.00;96134.25;5030774;28;20459;-75
2022/07/01 03:13:56;;;;;;;4.80;4.43;;;;;;;18.87;100.00;96158.00;5032815;28;20437;-75
2022/07/01 03:16:22;;;;;;;6.27;5.67;;;;;;;18.83;100.00;96161.81;5042069;28;20524;-74
2022/07/01 03:18:49;;;;;;;5.43;4.40;;;;;;;18.89;100.00;96160.28;5032231;28;20477;-75
2022/07/01 03:21:16;;;;;;;4.50;4.20;;;;;;;18.60;100.00;96130.03;5033742;28;20445;-75
2022/07/01 03:23:43;;;;;;;6.33;5.30;;;;;;;18.98;100.00;96171.41;5017238;28;20853;-74
2022/07/01 03:26:09;;;;;;;5.13;4.57;;;;;;;18.84;100.00;96172.16;5033793;28;20539;-75
2022/07/01 03:28:36;;;;;;;5.03;4.53;;;;;;;18.65;100.00;96124.31;5033549;28;20441;-74
2022/07/01 03:31:03;;;;;;;12.73;5.20;;;;;;;18.90;100.00;96173.31;5034027;28;20429;-75
2022/07/01 03:33:29;;;;;;;5.90;5.27;;;;;;;18.47;100.00;96134.25;5033577;28;20556;-75
2022/07/01 03:35:58;;;;;;;5.03;4.63;;;;;;;18.51;100.00;96148.41;5034132;28;20461;-75
2022/07/01 03:38:25;;;;;;;4.73;4.33;;;;;;;18.36;100.00;96138.81;5057666;28;20461;-75
2022/07/01 03:40:55;;;;;;;4.63;4.33;;;;;;;18.73;100.00;96147.28;5040270;28;20441;-75
2022/07/01 03:43:21;;;;;;;6.67;5.80;;;;;;;18.84;100.00;96152.66;5023549;28;20460;-75
2022/07/01 03:45:48;;;;;;;7.10;5.10;;;;;;;18.75;100.00;96171.78;5050236;28;20452;-75
2022/07/01 03:48:16;;;;;;;4.50;4.10;;;;;;;18.89;100.00;96163.72;5040428;28;20421;-74
2022/07/01 03:50:42;;;;;;;4.80;4.30;;;;;;;19.01;100.00;96180.56;5039943;28;21020;-75
2022/07/01 03:55:54;;;;;;;4.50;4.10;;;;;;;18.84;100.00;96174.09;5039432;28;20457;-75
2022/07/01 03:58:21;;;;;;;5.23;4.03;;;;;;;18.86;100.00;96159.16;5042293;28;20515;-75
2022/07/01 04:00:48;;;;;;;4.40;4.10;;;;;;;18.76;100.00;96135.03;5041259;28;20441;-75
2022/07/01 04:03:15;;;;;;;7.37;5.30;;;;;;;18.57;100.00;96122.78;5039652;28;20463;-75
2022/07/01 04:05:42;;;;;;;4.67;4.27;;;;;;;18.83;100.00;96145.72;5039578;28;20437;-75
2022/07/01 04:08:10;;;;;;;5.70;4.23;;;;;;;18.86;100.00;96161.81;5057767;28;20448;-75
2022/07/01 04:10:40;;;;;;;4.50;4.10;;;;;;;18.74;100.00;96146.16;5052499;28;20433;-75
2022/07/01 04:13:07;;;;;;;4.57;4.20;;;;;;;18.75;100.00;96174.47;5039860;28;20441;-75
2022/07/01 04:15:54;;;;;;;7.50;4.40;;;;;;;18.87;100.00;96184.78;5042666;28;20544;-75
2022/07/01 04:18:20;;;;;;;4.17;3.67;;;;;;;18.43;100.00;96187.00;5053251;28;20463;-75
2022/07/01 04:22:32;;;;;;;5.50;4.37;;;;;;;18.25;100.00;96166.34;5036463;28;20525;-75
2022/07/01 04:23:34;;;;;;;8.53;3.60;;;;;;;18.75;100.00;96195.88;5038088;28;20437;-74
2022/07/01 04:26:02;;;;;;;5.00;4.50;;;;;;;18.46;100.00;96191.63;5042668;28;20980;-75
2022/07/01 04:28:51;;;;;;;4.10;3.80;;;;;;;18.71;100.00;96203.16;5044940;28;20433;-75
2022/07/01 04:31:18;;;;;;;4.27;3.87;;;;;;;18.38;100.00;96168.66;5063049;28;20487;-75
2022/07/01 04:33:46;;;;;;;4.33;3.93;;;;;;;18.95;100.00;96208.88;5045759;28;21285;-75
2022/07/01 04:36:13;;;;;;;7.30;4.50;;;;;;;18.97;100.00;96211.97;5026144;28;20493;-75
2022/07/01 04:38:40;;;;;;;4.93;4.53;;;;;;;18.77;100.00;96203.53;5040157;28;20453;-75
2022/07/01 04:43:52;;;;;;;5.00;4.50;;;;;;;18.41;100.00;96191.97;5058095;28;20464;-75
2022/07/01 04:46:19;;;;;;;4.50;4.10;;;;;;;18.07;100.00;96172.81;5047515;28;20497;-75
2022/07/01 04:48:45;;;;;;;7.33;4.97;;;;;;;18.67;100.00;96231.06;5011301;28;20539;-75
2022/07/01 04:51:12;;;;;;;5.03;4.40;;;;;;;18.56;100.00;96209.59;5036544;28;20441;-75
2022/07/01 04:53:39;;;;;;;5.60;4.73;;;;;;;18.35;100.00;96212.25;5054288;28;20807;-75
2022/07/01 04:56:06;;;;;;;6.33;4.50;;;;;;;18.31;100.00;96244.38;5052712;28;21002;-75
2022/07/01 04:58:32;;;;;;;4.60;4.10;;;;;;;18.72;100.00;96260.19;5036421;28;20493;-75
2022/07/01 05:00:59;;;;;;;4.37;3.67;;;;;;;18.83;100.00;96259.06;5053949;28;20426;-75
2022/07/01 05:03:26;;;;;;;5.23;4.47;;;;;;;18.68;100.00;96267.41;5035861;28;20500;-75
2022/07/01 05:05:52;;;;;;;4.37;3.90;;;;;;;18.65;100.00;96242.16;5053095;28;20495;-75
2022/07/01 05:08:19;;;;;;;4.60;4.20;;;;;;;18.56;100.00;96263.16;5053477;28;20483;-75
2022/07/01 05:10:46;;;;;;;9.13;5.27;;;;;;;18.45;100.00;96260.47;5035622;28;20465;-75
2022/07/01 05:13:13;;;;;;;7.20;5.13;;;;;;;18.57;100.00;96270.06;5068897;28;20472;-75
2022/07/01 05:15:39;;;;;;;5.13;4.60;;;;;;;18.54;100.00;96255.50;5053317;28;20453;-75
2022/07/01 05:23:40;;;;;;;5.23;4.77;;;;;;;18.25;100.00;96268.03;5035265;28;20500;-75
2022/07/01 05:26:15;;;;;;;4.40;4.10;;;;;;;18.00;100.00;96229.72;5064148;28;20543;-75
2022/07/01 05:28:47;;;;;;;5.27;4.77;;;;;;;18.25;100.00;96243.19;5021773;28;20498;-75
2022/07/01 05:31:18;;;;;;;5.30;4.80;;;;;;;18.61;100.00;96265.47;5053108;28;20421;-75
2022/07/01 05:33:48;;;;;;;5.90;4.43;;;;;;;18.87;100.00;96253.69;5068869;28;20451;-75
2022/07/01 05:36:20;;;;;;;5.67;5.17;;;;;;;18.34;100.00;96242.84;5053297;28;20536;-75
2022/07/01 05:38:55;;;;;;;5.27;4.87;;;;;;;18.26;100.00;96247.41;5035719;28;20511;-75
2022/07/01 05:41:25;;;;;;;7.73;4.83;;;;;;;17.94;100.00;96244.63;5052527;28;20418;-75
2022/07/01 05:44:04;;;;;;;5.23;4.83;;;;;;;18.09;100.00;96222.13;5035979;28;20437;-75
2022/07/01 05:46:42;;;;;;;4.70;4.33;;;;;;;18.13;100.00;96230.16;5049765;28;20476;-74
2022/07/01 05:49:16;;;;;;;4.27;3.87;;;;;;;18.46;100.00;96224.53;5052991;28;20418;-75
2022/07/01 05:51:52;;;;;;;5.30;4.73;;;;;;;18.67;100.00;96242.56;5040679;28;20433;-75
2022/07/01 05:54:27;;;;;;;4.40;4.10;;;;;;;18.82;100.00;96262.84;5075787;28;20469;-75
2022/07/01 05:57:09;;;;;;;5.37;4.30;;;;;;;18.47;100.00;96252.81;5034690;28;20907;-75
2022/07/01 05:59:43;;;;;;;7.53;3.90;;;;;;;18.71;100.00;96274.72;5035500;28;20445;-74
2022/07/01 06:02:17;;;;;;;6.73;4.33;;;;;;;18.80;100.00;96286.56;5035606;28;20438;-76
2022/07/01 06:04:48;;;;;;;5.30;4.10;;;;;;;18.75;100.00;96295.00;5031679;28;20431;-75
2022/07/01 06:07:22;;;;;;;5.17;4.67;;;;;;;18.85;100.00;96310.34;5031887;28;20557;-74
2022/07/01 06:09:51;;;;;;;6.93;4.53;;;;;;;18.71;100.00;96290.78;5030658;28;20433;-76
2022/07/01 06:12:56;;;;;;;6.60;4.40;;;;;;;18.14;100.00;96277.94;5052810;28;20432;-76
2022/07/01 06:15:41;;;;;;;5.60;4.57;;;;;;;17.87;100.00;96268.66;5035570;28;20461;-76
2022/07/01 06:18:17;;;;;;;9.60;5.27;;;;;;;17.70;100.00;96272.75;5052833;28;20457;-77
2022/07/01 06:20:48;;;;;;;8.97;4.40;;;;;;;17.09;100.00;96236.78;5058535;28;20437;-77
2022/07/01 06:23:16;;;;;;;9.43;5.60;;;;;;;17.42;100.00;96300.06;5048895;28;20446;-77
2022/07/01 06:26:02;;;;;;;7.90;4.53;;;;;;;17.51;100.00;96300.50;5052380;28;20544;-76
2022/07/01 06:28:41;;;;;;;4.50;4.10;;;;;;;17.30;100.00;96287.75;5034121;28;20471;-76
2022/07/01 06:31:23;;;;;;;5.33;4.87;;;;;;;17.21;100.00;96300.63;5030337;28;20448;-76
2022/07/01 06:33:59;;;;;;;5.83;5.30;;;;;;;16.83;100.00;96307.19;5039043;28;20430;-76
2022/07/01 06:36:36;;;;;;;11.60;6.20;;;;;;;16.88;100.00;96320.19;5059723;28;20452;-76
2022/07/01 06:39:04;;;;;;;7.27;5.50;;;;;;;16.52;100.00;96273.66;5030416;28;20462;-76
2022/07/01 06:41:38;;;;;;;6.10;5.60;;;;;;;16.71;100.00;96328.81;5051395;28;20429;-77
2022/07/01 06:44:11;;;;;;;6.40;5.70;;;;;;;16.46;100.00;96318.59;5049119;28;20418;-77
2022/07/01 06:46:47;;;;;;;6.57;5.90;;;;;;;16.23;100.00;96300.00;5050597;28;20465;-76
2022/07/01 06:49:48;;;;;;;5.70;5.10;;;;;;;16.32;100.00;96350.44;5034266;28;20439;-76
2022/07/01 06:52:37;;;;;;;6.10;5.50;;;;;;;16.30;100.00;96326.03;5052569;28;20424;-77
2022/07/01 06:55:13;;;;;;;6.37;5.77;;;;;;;16.26;100.00;96349.97;5042961;28;20430;-76
2022/07/01 06:57:41;;;;;;;6.73;5.80;;;;;;;16.18;100.00;96343.03;5035306;28;20498;-76
2022/07/01 07:00:30;;;;;;;8.00;5.70;;;;;;;16.26;100.00;96360.66;5059756;28;20491;-76
2022/07/01 07:03:04;;;;;;;6.57;6.00;;;;;;;15.98;100.00;96367.50;5036014;28;20544;-77
2022/07/01 07:05:34;;;;;;;7.17;6.47;;;;;;;16.18;100.00;96376.94;5053620;28;20446;-77
2022/07/01 07:08:03;;;;;;;7.10;6.50;;;;;;;15.96;100.00;96357.19;5044455;28;20426;-77
2022/07/01 07:10:35;;;;;;;9.20;7.30;;;;;;;15.86;100.00;96357.81;5033772;28;20433;-76
2022/07/01 07:13:04;;;;;;;8.33;7.17;;;;;;;16.04;100.00;96368.75;5033568;28;20516;-77
2022/07/01 07:15:41;;;;;;;6.40;5.80;;;;;;;15.68;100.00;96340.78;5063797;28;20580;-77
2022/07/01 07:18:12;;;;;;;8.17;6.90;;;;;;;15.41;100.00;96326.66;5017811;28;21028;-77
2022/07/01 07:20:47;;;;;;;8.50;7.40;;;;;;;15.06;100.00;96253.81;5033778;28;20806;-77
2022/07/01 07:23:22;;;;;;;10.53;7.23;;;;;;;15.39;100.00;96295.03;5034799;28;20483;-77
2022/07/01 07:25:52;;;;;;;7.50;6.53;;;;;;;15.50;100.00;96327.19;5032888;28;20460;-77
2022/07/01 07:28:24;;;;;;;7.57;6.80;;;;;;;15.65;100.00;96327.06;5046339;28;20430;-76
2022/07/01 07:31:09;;;;;;;6.53;6.03;;;;;;;15.86;100.00;96321.25;5033334;28;20790;-76
2022/07/01 07:33:57;;;;;;;7.63;5.53;;;;;;;15.75;100.00;96339.00;5046378;28;20431;-76
2022/07/01 07:36:26;;;;;;;6.47;5.57;;;;;;;16.23;100.00;96373.94;5029188;28;20457;-77
2022/07/01 07:39:01;;;;;;;5.37;4.83;;;;;;;16.26;100.00;96386.56;5031973;28;20461;-77
2022/07/01 07:41:34;;;;;;;6.07;5.53;;;;;;;15.61;100.00;96322.78;5032901;28;20511;-77
2022/07/01 07:44:04;;;;;;;5.00;4.53;;;;;;;15.93;100.00;96379.25;5016210;28;20468;-76
2022/07/01 07:46:39;;;;;;;6.00;5.50;;;;;;;15.97;100.00;96422.75;5041788;28;20548;-77
2022/07/01 07:49:09;;;;;;;7.80;5.33;;;;;;;15.96;100.00;96389.97;5063851;28;20417;-76
2022/07/01 07:51:37;;;;;;;5.13;4.63;;;;;;;16.22;100.00;96407.09;5033216;28;20491;-77
2022/07/01 07:54:05;;;;;;;4.30;3.90;;;;;;;16.37;100.00;96397.38;5066022;28;20438;-76
2022/07/01 07:56:35;;;;;;;8.00;4.70;;;;;;;16.37;100.00;96403.50;5032986;28;20460;-76
2022/07/01 07:59:06;;;;;;;4.63;4.23;;;;;;;16.15;100.00;96415.00;5049858;28;20496;-77
2022/07/01 08:01:34;;;;;;;4.20;3.90;;;;;;;16.15;100.00;96415.00;5033035;28;20996;-72
2022/07/01 08:04:07;;;;;;;4.30;4.00;;;;;;;15.94;100.00;96416.22;5050599;28;20433;-73
2022/07/01 08:06:37;;;;;;;6.40;5.80;;;;;;;15.53;100.00;96393.09;5032473;28;20547;-73
2022/07/01 08:09:06;;;;;;;5.90;5.40;;;;;;;15.65;100.00;96416.94;5022267;28;20444;-73
2022/07/01 08:11:41;;;;;;;6.30;5.80;;;;;;;15.54;100.00;96390.06;5039796;28;20429;-72
2022/07/01 08:14:12;;;;;;;7.10;6.13;;;;;;;15.39;100.00;96393.63;5050658;28;20439;-73
2022/07/01 08:16:50;;;;;;;6.37;5.77;;;;;;;15.52;100.00;96436.84;5032837;28;20473;-73
2022/07/01 08:19:21;;;;;;;8.07;7.47;;;;;;;15.24;100.00;96426.47;5050672;28;20457;-73
2022/07/01 08:22:01;;;;;;;7.77;7.17;;;;;;;15.12;100.00;96458.59;5032613;28;20444;-73
2022/07/01 08:24:36;;;;;;;7.13;6.47;;;;;;;15.00;100.00;96436.31;5029424;28;20480;-72
2022/07/01 08:27:07;;;;;;;7.80;7.03;;;;;;;15.20;100.00;96452.25;5036352;28;20457;-73
2022/07/01 08:29:36;;;;;;;6.17;5.77;;;;;;;15.20;100.00;96468.25;5020208;28;20432;-72
2022/07/01 08:32:04;;;;;;;8.30;7.50;;;;;;;14.87;100.00;96444.78;5029736;28;21126;-74
2022/07/01 08:34:40;;;;;;;7.60;6.90;;;;;;;15.15;100.00;96476.53;5039429;28;20431;-73
2022/07/01 08:37:16;;;;;;;5.73;5.30;;;;;;;15.18;100.00;96462.50;5036230;28;20484;-73
2022/07/01 08:39:51;;;;;;;6.20;5.70;;;;;;;15.18;100.00;96481.91;5054026;28;20488;-73
2022/07/01 08:42:31;;;;;;;6.97;5.40;;;;;;;14.93;100.00;96456.69;5035935;28;20806;-73
2022/07/01 08:45:13;;;;;;;5.37;4.87;;;;;;;14.89;100.00;96445.22;5032060;28;20434;-73
2022/07/01 08:48:12;;;;;;;3.80;3.53;;;;;;;15.21;100.00;96485.75;5035953;28;20469;-73
2022/07/01 08:50:44;;;;;;;3.67;3.47;;;;;;;14.97;100.00;96468.97;5029053;28;20440;-73
2022/07/01 08:53:27;;;;;;;4.10;3.80;;;;;;;14.96;100.00;96474.66;5035703;28;20479;-73
2022/07/01 08:58:52;;;;;;;4.87;4.00;;;;;;;15.19;100.00;96504.75;5035711;28;20465;-73
2022/07/01 09:01:32;;;;;;;3.80;3.60;;;;;;;14.76;100.00;96471.97;5036256;28;20464;-73
2022/07/01 09:04:21;;;;;;;4.50;4.20;;;;;;;14.81;100.00;96492.19;5068530;28;20469;-73
2022/07/01 09:07:09;;;;;;;4.07;3.77;;;;;;;15.05;100.00;96475.97;5031941;28;20465;-74
2022/07/01 09:09:44;;;;;;;3.90;3.60;;;;;;;15.38;100.00;96488.00;5033460;28;20434;-73
2022/07/01 09:12:21;;;;;;;3.67;3.37;;;;;;;15.50;100.00;96489.75;5052260;28;20425;-73
2022/07/01 09:15:14;;;;;;;4.20;3.80;;;;;;;15.29;100.00;96471.47;5015867;28;20457;-73
2022/07/01 09:17:46;;;;;;;4.33;3.97;;;;;;;15.47;100.00;96515.19;5030047;28;20465;-73
2022/07/01 09:20:27;;;;;;;4.60;4.20;;;;;;;15.31;100.00;96515.28;5028056;28;20488;-74
2022/07/01 09:23:18;;;;;;;4.13;3.83;;;;;;;15.10;100.00;96514.09;5052869;28;20468;-73
2022/07/01 09:25:51;;;;;;;3.10;2.90;;;;;;;15.44;100.00;96518.56;5054514;28;20477;-73
2022/07/01 09:28:25;;;;;;;3.43;2.90;;;;;;;15.05;100.00;96481.28;5070092;28;20902;-73
2022/07/01 09:31:03;;;;;;;4.30;3.90;;;;;;;15.29;100.00;96476.78;5054591;28;20448;-73
2022/07/01 09:33:36;;;;;;;4.07;3.77;;;;;;;15.48;100.00;96510.63;5057428;28;20461;-74
2022/07/01 09:36:20;;;;;;;3.80;3.10;;;;;;;15.81;100.00;96515.44;5069840;28;20975;-73
2022/07/01 09:38:49;;;;;;;2.93;2.73;;;;;;;15.80;100.00;96506.66;5018628;28;20765;-73
2022/07/01 09:41:43;;;;;;;3.77;3.43;;;;;;;15.61;100.00;96512.03;5035097;28;20500;-72
2022/07/01 09:44:17;;;;;;;4.07;3.67;;;;;;;15.68;100.00;96493.50;5035810;28;20437;-72
2022/07/01 09:46:57;;;;;;;3.80;3.40;;;;;;;15.71;100.00;96505.34;5052645;28;20463;-72
2022/07/01 09:49:27;;;;;;;3.30;3.10;;;;;;;15.99;100.00;96510.41;5034766;28;20433;-72
2022/07/01 09:51:58;;;;;;;3.70;3.40;;;;;;;16.11;100.00;96488.88;5034751;28;20437;-72
2022/07/01 09:54:36;;;;;;;5.30;2.67;;;;;;;16.07;100.00;96515.50;5031215;28;20529;-72
2022/07/01 09:57:14;;;;;;;2.80;2.60;;;;;;;16.08;100.00;96530.38;5033990;28;20464;-72
2022/07/01 09:59:54;;;;;;;3.17;2.97;;;;;;;16.04;100.00;96534.88;5052760;28;20449;-72
2022/07/01 10:02:36;;;;;;;2.60;2.17;;;;;;;16.12;100.00;96541.88;5018251;28;20426;-72
2022/07/01 10:05:15;;;;;;;1.67;1.57;;;;;;;15.71;100.00;96551.44;5034473;28;20443;-72
2022/07/01 10:08:19;;;;;;;3.10;2.03;;;;;;;15.85;100.00;96546.38;5052010;28;20457;-72
2022/07/01 10:11:20;;;;;;;2.20;2.00;;;;;;;16.10;100.00;96543.34;5035577;28;20432;-74
2022/07/01 10:13:55;;;;;;;1.70;1.60;;;;;;;16.06;100.00;96532.63;5034406;28;20436;-75
2022/07/01 10:16:31;;;;;;;2.73;2.33;;;;;;;16.47;100.00;96543.56;5034327;28;20518;-75
2022/07/01 10:19:25;;;;;;;2.07;1.70;;;;;;;16.51;100.00;96545.16;5067632;28;20461;-75
2022/07/01 10:22:32;;;;;;;1.97;1.87;;;;;;;16.36;100.00;96547.97;5052222;28;20432;-74
2022/07/01 10:25:41;;;;;;;2.47;1.60;;;;;;;16.19;100.00;96534.00;5034079;28;20473;-75
2022/07/01 10:28:23;;;;;;;2.17;2.03;;;;;;;16.27;100.00;96529.53;5033350;28;20456;-75
2022/07/01 10:31:15;;;;;;;2.07;1.97;;;;;;;16.14;100.00;96504.94;5034536;28;20492;-75
2022/07/01 10:33:46;;;;;;;1.90;1.80;;;;;;;16.54;100.00;96528.41;5033873;28;20954;-74
2022/07/01 10:37:01;;;;;;;2.00;1.90;;;;;;;16.46;100.00;96523.34;5050374;28;20556;-75
2022/07/01 10:39:51;;;;;;;2.20;2.10;;;;;;;16.37;100.00;96533.50;5024596;28;20865;-75
2022/07/01 10:42:46;;;;;;;2.57;2.43;;;;;;;16.06;100.00;96499.84;5067148;28;20445;-75
2022/07/01 10:45:26;;;;;;;3.00;2.80;;;;;;;16.32;100.00;96537.25;5065488;28;20457;-75
2022/07/01 10:48:23;;;;;;;3.07;2.87;;;;;;;16.14;100.00;96549.50;5051810;28;20504;-74
2022/07/01 10:50:59;;;;;;;3.50;3.30;;;;;;;15.52;100.00;96522.13;5033680;28;20444;-74
2022/07/01 10:53:54;;;;;;;3.60;3.40;;;;;;;15.48;100.00;96527.38;5034032;28;21023;-75
2022/07/01 10:56:41;;;;;;;3.80;3.60;;;;;;;15.57;100.00;96540.50;5033755;28;20465;-74
2022/07/01 10:59:22;;;;;;;3.40;3.20;;;;;;;16.19;100.00;96533.22;5033408;28;20507;-74
2022/07/01 11:01:50;;;;;;;3.70;3.50;;;;;;;16.19;100.00;96530.56;5033822;28;20421;-75
2022/07/01 11:04:23;;;;;;;3.50;3.20;;;;;;;16.55;100.00;96548.63;5034273;28;20988;-75
2022/07/01 11:06:58;;;;;;;3.37;3.07;;;;;;;16.23;100.00;96520.69;5033038;28;21006;-74
2022/07/01 11:09:38;;;;;;;3.10;2.90;;;;;;;15.79;100.00;96541.69;5033218;28;20966;-74
2022/07/01 11:12:08;;;;;;;4.10;2.47;;;;;;;15.89;100.00;96563.22;5033441;28;20458;-74
2022/07/01 11:14:42;;;;;;;3.00;2.80;;;;;;;16.19;100.00;96565.25;5033952;28;20409;-74
2022/07/01 11:17:12;;;;;;;2.77;2.23;;;;;;;16.25;100.00;96534.44;5033078;28;20544;-75
2022/07/01 11:19:52;;;;;;;3.03;2.83;;;;;;;16.62;100.00;96577.34;5032739;28;20465;-73
2022/07/01 11:22:30;;;;;;;2.43;2.23;;;;;;;16.65;100.00;96560.59;5049754;28;20953;-74
2022/07/01 11:25:04;;;;;;;4.20;2.70;;;;;;;16.33;100.00;96554.03;5050854;28;20889;-75
2022/07/01 11:27:38;;;;;;;3.20;3.00;;;;;;;16.01;100.00;96586.25;5016474;28;20460;-74
2022/07/01 11:30:17;;;;;;;2.67;2.47;;;;;;;16.32;100.00;96584.50;5033085;28;20455;-74
2022/07/01 11:32:56;;;;;;;2.73;2.53;;;;;;;16.08;100.00;96573.06;5049377;28;20472;-74
2022/07/01 11:41:25;;;;;;;2.03;1.93;;;;;;;16.54;100.00;96591.72;5050612;28;20484;-74
2022/07/01 11:44:04;;;;;;;3.10;1.83;;;;;;;16.24;100.00;96551.59;5033801;28;20452;-74
2022/07/01 11:46:50;;;;;;;3.23;2.50;;;;;;;16.34;100.00;96593.69;5045248;28;20449;-74
2022/07/01 11:49:26;;;;;;;2.80;2.60;;;;;;;16.34;100.00;96583.03;5050814;28;20787;-74
2022/07/01 11:52:02;;;;;;;1.87;1.77;;;;;;;16.54;100.00;96570.34;5066255;28;20445;-74
2022/07/01 11:54:41;;;;;;;2.50;2.30;;;;;;;16.12;100.00;96555.19;5017571;28;20535;-74
2022/07/01 11:57:29;;;;;;;2.73;2.53;;;;;;;16.07;100.00;96592.84;5035733;28;20469;-74
2022/07/01 12:00:13;;;;;;;2.53;2.33;;;;;;;16.31;100.00;96585.63;5045405;28;20548;-74
2022/07/01 12:02:53;;;;;;;2.40;2.20;;;;;;;15.42;100.00;96562.69;5038440;28;20429;-74
2022/07/01 12:05:28;;;;;;;2.37;2.17;;;;;;;16.05;100.00;96589.00;5036833;28;20440;-74
2022/07/01 12:08:14;;;;;;;2.47;2.33;;;;;;;15.67;100.00;96590.59;5036779;28;20453;-74
2022/07/01 12:10:46;;;;;;;3.20;2.73;;;;;;;15.46;100.00;96601.59;5036693;28;20429;-74
2022/07/01 12:13:34;;;;;;;3.00;2.40;;;;;;;15.22;100.00;96594.63;5037801;28;20426;-74
2022/07/01 12:16:09;;;;;;;3.43;3.20;;;;;;;15.40;100.00;96587.00;5055000;28;20445;-74